Readfield, Maine
Current Conditions -  °F | °C
As of 12:53 PM on Monday 22 Dec 2014 (Local Time) from KAUG Reporting Station
Few Clouds Few Clouds  
Wind Chill: 34°   Ceiling: Unl
Heat Index: 34°   Visibility: 10mi
Dew Point: 26°   Wind: 3mph
Humidity: 73%   Direction: 30°NNE
Pressure: 30.38"   Gusts: NA
Location:  44.39°N, 69.97°W
Report Text: KAUG 221753Z AUTO 03003KT 10SM FEW048 01/M03 A3038 RMK AO2 SLP292 T00111033 10011 21033 58020
Loading
Personal Weather Stations






























Interactive Weather Map New forecast layout! Learn more

10-Day Weather Forecast

Advertisements
Track Severe Weather on mobile